sensor_id;sensor_type;location;lat;lon;timestamp;P1;durP1;ratioP1;P2;durP2;ratioP2
60610;SDS011;46439;51.164;13.572;2022-10-26T00:01:25;14.40;;;4.10;;
60610;SDS011;46439;51.164;13.572;2022-10-26T00:03:54;7.70;;;3.90;;
60610;SDS011;46439;51.164;13.572;2022-10-26T00:06:24;9.50;;;4.00;;
60610;SDS011;46439;51.164;13.572;2022-10-26T00:11:22;12.20;;;3.80;;
60610;SDS011;46439;51.164;13.572;2022-10-26T00:13:51;9.70;;;3.70;;
60610;SDS011;46439;51.164;13.572;2022-10-26T00:16:20;13.00;;;4.00;;
60610;SDS011;46439;51.164;13.572;2022-10-26T00:18:50;18.50;;;4.20;;
60610;SDS011;46439;51.164;13.572;2022-10-26T00:21:19;7.30;;;3.70;;
60610;SDS011;46439;51.164;13.572;2022-10-26T00:23:47;12.90;;;3.90;;
60610;SDS011;46439;51.164;13.572;2022-10-26T00:26:15;12.20;;;4.40;;
60610;SDS011;46439;51.164;13.572;2022-10-26T00:28:43;10.70;;;4.20;;
60610;SDS011;46439;51.164;13.572;2022-10-26T00:31:12;9.10;;;4.10;;
60610;SDS011;46439;51.164;13.572;2022-10-26T00:33:41;8.90;;;3.80;;
60610;SDS011;46439;51.164;13.572;2022-10-26T00:36:10;7.30;;;3.50;;
60610;SDS011;46439;51.164;13.572;2022-10-26T00:38:42;14.00;;;3.80;;
60610;SDS011;46439;51.164;13.572;2022-10-26T00:41:14;9.00;;;3.70;;
60610;SDS011;46439;51.164;13.572;2022-10-26T00:43:44;12.50;;;3.50;;
60610;SDS011;46439;51.164;13.572;2022-10-26T00:46:12;9.20;;;3.80;;
60610;SDS011;46439;51.164;13.572;2022-10-26T00:48:48;9.20;;;3.90;;
60610;SDS011;46439;51.164;13.572;2022-10-26T00:51:21;12.20;;;3.80;;
60610;SDS011;46439;51.164;13.572;2022-10-26T00:53:58;8.30;;;3.60;;
60610;SDS011;46439;51.164;13.572;2022-10-26T00:56:29;11.10;;;3.50;;
60610;SDS011;46439;51.164;13.572;2022-10-26T00:59:00;9.40;;;3.80;;
60610;SDS011;46439;51.164;13.572;2022-10-26T01:01:32;9.70;;;3.50;;
60610;SDS011;46439;51.164;13.572;2022-10-26T01:04:03;9.90;;;3.30;;
60610;SDS011;46439;51.164;13.572;2022-10-26T01:06:32;12.40;;;3.70;;
60610;SDS011;46439;51.164;13.572;2022-10-26T01:09:03;9.30;;;3.30;;
60610;SDS011;46439;51.164;13.572;2022-10-26T01:11:32;10.20;;;3.60;;
60610;SDS011;46439;51.164;13.572;2022-10-26T01:14:01;9.40;;;3.50;;
60610;SDS011;46439;51.164;13.572;2022-10-26T01:22:18;5.90;;;2.80;;
60610;SDS011;46439;51.164;13.572;2022-10-26T01:24:57;11.50;;;3.80;;
60610;SDS011;46439;51.164;13.572;2022-10-26T01:27:32;7.20;;;3.20;;
60610;SDS011;46439;51.164;13.572;2022-10-26T01:30:21;8.00;;;3.20;;
60610;SDS011;46439;51.164;13.572;2022-10-26T01:32:56;8.80;;;3.20;;
60610;SDS011;46439;51.164;13.572;2022-10-26T01:35:37;5.80;;;3.20;;
60610;SDS011;46439;51.164;13.572;2022-10-26T01:38:12;10.90;;;3.30;;
60610;SDS011;46439;51.164;13.572;2022-10-26T01:40:44;7.70;;;3.30;;
60610;SDS011;46439;51.164;13.572;2022-10-26T01:43:20;9.30;;;3.20;;
60610;SDS011;46439;51.164;13.572;2022-10-26T01:45:50;7.20;;;3.30;;
60610;SDS011;46439;51.164;13.572;2022-10-26T01:48:20;8.00;;;3.20;;
60610;SDS011;46439;51.164;13.572;2022-10-26T01:50:52;9.10;;;3.40;;
60610;SDS011;46439;51.164;13.572;2022-10-26T01:53:23;9.90;;;3.60;;
60610;SDS011;46439;51.164;13.572;2022-10-26T01:55:54;5.60;;;3.40;;
60610;SDS011;46439;51.164;13.572;2022-10-26T01:58:30;7.60;;;3.60;;
60610;SDS011;46439;51.164;13.572;2022-10-26T02:01:22;9.10;;;3.20;;
60610;SDS011;46439;51.164;13.572;2022-10-26T02:04:13;8.10;;;3.30;;
60610;SDS011;46439;51.164;13.572;2022-10-26T02:06:51;8.60;;;3.30;;
60610;SDS011;46439;51.164;13.572;2022-10-26T02:09:31;11.80;;;3.20;;
60610;SDS011;46439;51.164;13.572;2022-10-26T02:12:09;8.10;;;3.20;;
60610;SDS011;46439;51.164;13.572;2022-10-26T02:14:46;7.60;;;3.60;;
60610;SDS011;46439;51.164;13.572;2022-10-26T02:17:18;8.80;;;3.30;;
60610;SDS011;46439;51.164;13.572;2022-10-26T02:19:55;6.40;;;3.10;;
60610;SDS011;46439;51.164;13.572;2022-10-26T02:22:26;6.70;;;3.30;;
60610;SDS011;46439;51.164;13.572;2022-10-26T02:24:59;10.10;;;3.50;;
60610;SDS011;46439;51.164;13.572;2022-10-26T02:27:33;11.60;;;5.20;;
60610;SDS011;46439;51.164;13.572;2022-10-26T02:30:08;15.30;;;7.10;;
60610;SDS011;46439;51.164;13.572;2022-10-26T02:32:39;11.10;;;5.10;;
60610;SDS011;46439;51.164;13.572;2022-10-26T02:35:12;12.00;;;4.90;;
60610;SDS011;46439;51.164;13.572;2022-10-26T02:37:42;11.80;;;4.20;;
60610;SDS011;46439;51.164;13.572;2022-10-26T02:40:14;6.70;;;3.60;;
60610;SDS011;46439;51.164;13.572;2022-10-26T02:42:46;11.10;;;3.50;;
60610;SDS011;46439;51.164;13.572;2022-10-26T02:45:16;10.90;;;3.70;;
60610;SDS011;46439;51.164;13.572;2022-10-26T02:50:15;8.30;;;3.80;;
60610;SDS011;46439;51.164;13.572;2022-10-26T02:52:46;11.80;;;4.20;;
60610;SDS011;46439;51.164;13.572;2022-10-26T02:55:24;13.70;;;4.70;;
60610;SDS011;46439;51.164;13.572;2022-10-26T02:57:56;9.00;;;4.40;;
60610;SDS011;46439;51.164;13.572;2022-10-26T03:00:27;15.00;;;4.90;;
60610;SDS011;46439;51.164;13.572;2022-10-26T03:02:57;11.10;;;5.10;;
60610;SDS011;46439;51.164;13.572;2022-10-26T03:05:29;10.40;;;4.20;;
60610;SDS011;46439;51.164;13.572;2022-10-26T03:07:58;10.10;;;4.90;;
60610;SDS011;46439;51.164;13.572;2022-10-26T03:10:27;13.10;;;4.40;;
60610;SDS011;46439;51.164;13.572;2022-10-26T03:12:56;7.10;;;3.90;;
60610;SDS011;46439;51.164;13.572;2022-10-26T03:15:24;10.30;;;4.50;;
60610;SDS011;46439;51.164;13.572;2022-10-26T03:17:52;10.60;;;3.60;;
60610;SDS011;46439;51.164;13.572;2022-10-26T03:20:20;8.60;;;3.60;;
60610;SDS011;46439;51.164;13.572;2022-10-26T03:22:49;8.80;;;3.90;;
60610;SDS011;46439;51.164;13.572;2022-10-26T03:25:17;8.10;;;3.80;;
60610;SDS011;46439;51.164;13.572;2022-10-26T03:27:45;11.50;;;4.00;;
60610;SDS011;46439;51.164;13.572;2022-10-26T03:30:21;10.30;;;3.90;;
60610;SDS011;46439;51.164;13.572;2022-10-26T03:32:49;6.80;;;3.80;;
60610;SDS011;46439;51.164;13.572;2022-10-26T03:35:18;8.70;;;3.90;;
60610;SDS011;46439;51.164;13.572;2022-10-26T03:37:46;6.90;;;3.60;;
60610;SDS011;46439;51.164;13.572;2022-10-26T03:40:14;10.10;;;5.10;;
60610;SDS011;46439;51.164;13.572;2022-10-26T03:42:43;10.40;;;4.50;;
60610;SDS011;46439;51.164;13.572;2022-10-26T03:45:11;9.60;;;4.10;;
60610;SDS011;46439;51.164;13.572;2022-10-26T03:47:42;8.80;;;3.60;;
60610;SDS011;46439;51.164;13.572;2022-10-26T03:50:11;9.60;;;4.20;;
60610;SDS011;46439;51.164;13.572;2022-10-26T03:52:41;9.00;;;4.80;;
60610;SDS011;46439;51.164;13.572;2022-10-26T03:55:10;8.70;;;4.60;;
60610;SDS011;46439;51.164;13.572;2022-10-26T03:57:41;9.10;;;5.40;;
60610;SDS011;46439;51.164;13.572;2022-10-26T04:00:12;12.10;;;6.10;;
60610;SDS011;46439;51.164;13.572;2022-10-26T04:02:42;12.90;;;5.80;;
60610;SDS011;46439;51.164;13.572;2022-10-26T04:05:17;11.00;;;4.90;;
60610;SDS011;46439;51.164;13.572;2022-10-26T04:07:48;14.70;;;5.70;;
60610;SDS011;46439;51.164;13.572;2022-10-26T04:10:19;17.20;;;8.80;;
60610;SDS011;46439;51.164;13.572;2022-10-26T04:12:47;18.40;;;8.50;;
60610;SDS011;46439;51.164;13.572;2022-10-26T04:15:16;14.90;;;8.00;;
60610;SDS011;46439;51.164;13.572;2022-10-26T04:17:44;18.90;;;9.40;;
60610;SDS011;46439;51.164;13.572;2022-10-26T04:20:13;21.60;;;10.80;;
60610;SDS011;46439;51.164;13.572;2022-10-26T04:22:41;19.00;;;10.60;;
60610;SDS011;46439;51.164;13.572;2022-10-26T04:25:10;25.60;;;11.40;;
60610;SDS011;46439;51.164;13.572;2022-10-26T04:27:39;24.10;;;12.70;;
60610;SDS011;46439;51.164;13.572;2022-10-26T04:30:08;25.00;;;12.10;;
60610;SDS011;46439;51.164;13.572;2022-10-26T04:32:38;27.80;;;13.00;;
60610;SDS011;46439;51.164;13.572;2022-10-26T04:35:07;27.50;;;13.90;;
60610;SDS011;46439;51.164;13.572;2022-10-26T04:37:36;24.80;;;13.20;;
60610;SDS011;46439;51.164;13.572;2022-10-26T04:40:06;23.50;;;12.30;;
60610;SDS011;46439;51.164;13.572;2022-10-26T04:42:40;27.20;;;12.70;;
60610;SDS011;46439;51.164;13.572;2022-10-26T04:45:10;22.50;;;10.70;;
60610;SDS011;46439;51.164;13.572;2022-10-26T04:47:40;20.10;;;9.40;;
60610;SDS011;46439;51.164;13.572;2022-10-26T04:50:09;16.10;;;8.40;;
60610;SDS011;46439;51.164;13.572;2022-10-26T04:52:39;15.60;;;9.50;;
60610;SDS011;46439;51.164;13.572;2022-10-26T04:55:08;23.30;;;11.80;;
60610;SDS011;46439;51.164;13.572;2022-10-26T04:57:36;24.10;;;12.50;;
60610;SDS011;46439;51.164;13.572;2022-10-26T05:00:05;23.10;;;12.30;;
60610;SDS011;46439;51.164;13.572;2022-10-26T05:02:35;23.00;;;12.10;;
60610;SDS011;46439;51.164;13.572;2022-10-26T05:05:03;18.50;;;10.80;;
60610;SDS011;46439;51.164;13.572;2022-10-26T05:07:32;18.10;;;9.30;;
60610;SDS011;46439;51.164;13.572;2022-10-26T05:10:00;14.80;;;8.10;;
60610;SDS011;46439;51.164;13.572;2022-10-26T05:12:29;18.90;;;8.40;;
60610;SDS011;46439;51.164;13.572;2022-10-26T05:14:57;20.80;;;7.80;;
60610;SDS011;46439;51.164;13.572;2022-10-26T05:17:26;21.00;;;6.90;;
60610;SDS011;46439;51.164;13.572;2022-10-26T05:19:54;15.70;;;5.90;;
60610;SDS011;46439;51.164;13.572;2022-10-26T05:22:23;12.00;;;6.00;;
60610;SDS011;46439;51.164;13.572;2022-10-26T05:24:52;14.40;;;7.00;;
60610;SDS011;46439;51.164;13.572;2022-10-26T05:27:20;13.00;;;6.40;;
60610;SDS011;46439;51.164;13.572;2022-10-26T05:29:48;17.50;;;6.90;;
60610;SDS011;46439;51.164;13.572;2022-10-26T05:32:17;18.00;;;7.30;;
60610;SDS011;46439;51.164;13.572;2022-10-26T05:34:45;14.30;;;6.60;;
60610;SDS011;46439;51.164;13.572;2022-10-26T05:37:14;15.60;;;7.10;;
60610;SDS011;46439;51.164;13.572;2022-10-26T05:39:42;18.80;;;7.60;;
60610;SDS011;46439;51.164;13.572;2022-10-26T05:42:10;23.10;;;8.50;;
60610;SDS011;46439;51.164;13.572;2022-10-26T05:44:38;18.20;;;8.50;;
60610;SDS011;46439;51.164;13.572;2022-10-26T05:47:07;14.90;;;7.70;;
60610;SDS011;46439;51.164;13.572;2022-10-26T05:49:35;12.60;;;6.50;;
60610;SDS011;46439;51.164;13.572;2022-10-26T05:52:03;14.30;;;7.20;;
60610;SDS011;46439;51.164;13.572;2022-10-26T05:54:32;16.40;;;5.70;;
60610;SDS011;46439;51.164;13.572;2022-10-26T05:57:01;10.70;;;5.50;;
60610;SDS011;46439;51.164;13.572;2022-10-26T05:59:31;10.90;;;5.50;;
60610;SDS011;46439;51.164;13.572;2022-10-26T06:02:03;14.60;;;6.10;;
60610;SDS011;46439;51.164;13.572;2022-10-26T06:04:41;11.70;;;6.30;;
60610;SDS011;46439;51.164;13.572;2022-10-26T06:07:15;13.10;;;6.20;;
60610;SDS011;46439;51.164;13.572;2022-10-26T06:09:47;12.80;;;5.90;;
60610;SDS011;46439;51.164;13.572;2022-10-26T06:12:16;10.90;;;5.10;;
60610;SDS011;46439;51.164;13.572;2022-10-26T06:14:46;11.90;;;5.80;;
60610;SDS011;46439;51.164;13.572;2022-10-26T06:17:19;12.60;;;5.70;;
60610;SDS011;46439;51.164;13.572;2022-10-26T06:20:12;15.90;;;6.00;;
60610;SDS011;46439;51.164;13.572;2022-10-26T06:22:55;13.00;;;6.00;;
60610;SDS011;46439;51.164;13.572;2022-10-26T06:25:36;13.90;;;6.80;;
60610;SDS011;46439;51.164;13.572;2022-10-26T06:28:18;10.60;;;6.90;;
60610;SDS011;46439;51.164;13.572;2022-10-26T06:30:57;12.30;;;7.70;;
60610;SDS011;46439;51.164;13.572;2022-10-26T06:33:26;17.50;;;7.00;;
60610;SDS011;46439;51.164;13.572;2022-10-26T06:35:57;20.90;;;8.70;;
60610;SDS011;46439;51.164;13.572;2022-10-26T06:38:33;18.00;;;8.70;;
60610;SDS011;46439;51.164;13.572;2022-10-26T06:41:03;19.70;;;9.10;;
60610;SDS011;46439;51.164;13.572;2022-10-26T06:56:39;16.80;;;7.30;;
60610;SDS011;46439;51.164;13.572;2022-10-26T06:59:12;13.60;;;5.80;;
60610;SDS011;46439;51.164;13.572;2022-10-26T07:01:43;15.80;;;5.80;;
60610;SDS011;46439;51.164;13.572;2022-10-26T07:04:12;20.00;;;5.50;;
60610;SDS011;46439;51.164;13.572;2022-10-26T07:06:40;12.20;;;5.80;;
60610;SDS011;46439;51.164;13.572;2022-10-26T07:09:09;14.80;;;5.60;;
60610;SDS011;46439;51.164;13.572;2022-10-26T07:11:37;12.50;;;5.70;;
60610;SDS011;46439;51.164;13.572;2022-10-26T07:14:06;15.80;;;7.10;;
60610;SDS011;46439;51.164;13.572;2022-10-26T07:16:34;14.10;;;6.70;;
60610;SDS011;46439;51.164;13.572;2022-10-26T07:19:03;14.80;;;6.80;;
60610;SDS011;46439;51.164;13.572;2022-10-26T07:21:31;17.10;;;7.80;;
60610;SDS011;46439;51.164;13.572;2022-10-26T07:24:00;15.30;;;7.70;;
60610;SDS011;46439;51.164;13.572;2022-10-26T07:26:28;18.60;;;7.90;;
60610;SDS011;46439;51.164;13.572;2022-10-26T07:28:56;14.90;;;7.00;;
60610;SDS011;46439;51.164;13.572;2022-10-26T07:31:25;13.70;;;7.10;;
60610;SDS011;46439;51.164;13.572;2022-10-26T07:33:54;14.70;;;7.50;;
60610;SDS011;46439;51.164;13.572;2022-10-26T07:36:22;20.70;;;7.20;;
60610;SDS011;46439;51.164;13.572;2022-10-26T07:38:51;19.30;;;7.10;;
60610;SDS011;46439;51.164;13.572;2022-10-26T07:41:20;12.50;;;6.40;;
60610;SDS011;46439;51.164;13.572;2022-10-26T07:43:48;16.20;;;7.40;;
60610;SDS011;46439;51.164;13.572;2022-10-26T07:46:17;15.80;;;6.80;;
60610;SDS011;46439;51.164;13.572;2022-10-26T07:48:46;13.30;;;7.00;;
60610;SDS011;46439;51.164;13.572;2022-10-26T07:51:14;13.50;;;5.80;;
60610;SDS011;46439;51.164;13.572;2022-10-26T07:56:31;10.20;;;5.50;;
60610;SDS011;46439;51.164;13.572;2022-10-26T07:58:59;10.50;;;5.30;;
60610;SDS011;46439;51.164;13.572;2022-10-26T08:01:27;15.90;;;6.70;;
60610;SDS011;46439;51.164;13.572;2022-10-26T08:03:55;16.60;;;5.50;;
60610;SDS011;46439;51.164;13.572;2022-10-26T08:06:24;11.10;;;5.40;;
60610;SDS011;46439;51.164;13.572;2022-10-26T08:08:52;13.30;;;5.80;;
60610;SDS011;46439;51.164;13.572;2022-10-26T08:11:20;16.40;;;6.40;;
60610;SDS011;46439;51.164;13.572;2022-10-26T08:13:51;12.80;;;5.80;;
60610;SDS011;46439;51.164;13.572;2022-10-26T08:16:20;17.60;;;6.00;;
60610;SDS011;46439;51.164;13.572;2022-10-26T08:18:50;19.20;;;5.90;;
60610;SDS011;46439;51.164;13.572;2022-10-26T08:21:18;9.10;;;5.50;;
60610;SDS011;46439;51.164;13.572;2022-10-26T08:23:46;16.10;;;5.30;;
60610;SDS011;46439;51.164;13.572;2022-10-26T08:26:15;14.30;;;5.70;;
60610;SDS011;46439;51.164;13.572;2022-10-26T08:28:47;16.80;;;6.00;;
60610;SDS011;46439;51.164;13.572;2022-10-26T08:31:15;12.40;;;5.80;;
60610;SDS011;46439;51.164;13.572;2022-10-26T08:33:44;10.70;;;5.90;;
60610;SDS011;46439;51.164;13.572;2022-10-26T08:36:12;18.50;;;6.30;;
60610;SDS011;46439;51.164;13.572;2022-10-26T08:38:47;15.00;;;6.40;;
60610;SDS011;46439;51.164;13.572;2022-10-26T08:41:15;15.20;;;6.10;;
60610;SDS011;46439;51.164;13.572;2022-10-26T08:43:46;13.90;;;5.80;;
60610;SDS011;46439;51.164;13.572;2022-10-26T08:46:22;15.20;;;5.70;;
60610;SDS011;46439;51.164;13.572;2022-10-26T08:48:55;13.10;;;6.00;;
60610;SDS011;46439;51.164;13.572;2022-10-26T08:51:28;13.90;;;6.00;;
60610;SDS011;46439;51.164;13.572;2022-10-26T08:54:02;14.20;;;5.60;;
60610;SDS011;46439;51.164;13.572;2022-10-26T08:56:40;25.50;;;5.10;;
60610;SDS011;46439;51.164;13.572;2022-10-26T08:59:13;14.10;;;5.50;;
60610;SDS011;46439;51.164;13.572;2022-10-26T09:01:56;12.80;;;6.10;;
60610;SDS011;46439;51.164;13.572;2022-10-26T09:04:27;20.80;;;6.00;;
60610;SDS011;46439;51.164;13.572;2022-10-26T09:06:58;19.10;;;6.10;;
60610;SDS011;46439;51.164;13.572;2022-10-26T09:09:40;22.20;;;6.20;;
60610;SDS011;46439;51.164;13.572;2022-10-26T09:12:19;11.50;;;5.50;;
60610;SDS011;46439;51.164;13.572;2022-10-26T09:14:56;13.20;;;5.50;;
60610;SDS011;46439;51.164;13.572;2022-10-26T09:17:36;19.50;;;5.70;;
60610;SDS011;46439;51.164;13.572;2022-10-26T09:20:17;13.30;;;5.70;;
60610;SDS011;46439;51.164;13.572;2022-10-26T09:22:59;16.00;;;5.60;;
60610;SDS011;46439;51.164;13.572;2022-10-26T09:25:37;20.70;;;6.50;;
60610;SDS011;46439;51.164;13.572;2022-10-26T09:28:10;15.10;;;5.80;;
60610;SDS011;46439;51.164;13.572;2022-10-26T09:30:44;14.40;;;6.20;;
60610;SDS011;46439;51.164;13.572;2022-10-26T09:33:14;16.50;;;5.90;;
60610;SDS011;46439;51.164;13.572;2022-10-26T09:35:45;13.00;;;5.40;;
60610;SDS011;46439;51.164;13.572;2022-10-26T09:38:18;14.30;;;6.10;;
60610;SDS011;46439;51.164;13.572;2022-10-26T09:40:51;16.70;;;6.00;;
60610;SDS011;46439;51.164;13.572;2022-10-26T09:43:25;13.00;;;6.00;;
60610;SDS011;46439;51.164;13.572;2022-10-26T09:45:58;13.70;;;5.20;;
60610;SDS011;46439;51.164;13.572;2022-10-26T09:48:28;16.40;;;5.80;;
60610;SDS011;46439;51.164;13.572;2022-10-26T09:51:02;14.10;;;5.30;;
60610;SDS011;46439;51.164;13.572;2022-10-26T09:53:30;19.00;;;6.20;;
60610;SDS011;46439;51.164;13.572;2022-10-26T09:56:00;17.60;;;6.00;;
60610;SDS011;46439;51.164;13.572;2022-10-26T09:58:33;20.20;;;5.80;;
60610;SDS011;46439;51.164;13.572;2022-10-26T10:01:06;16.40;;;6.10;;
60610;SDS011;46439;51.164;13.572;2022-10-26T10:03:45;14.80;;;6.00;;
60610;SDS011;46439;51.164;13.572;2022-10-26T10:06:15;12.10;;;5.70;;
60610;SDS011;46439;51.164;13.572;2022-10-26T10:08:44;13.90;;;5.40;;
60610;SDS011;46439;51.164;13.572;2022-10-26T10:11:39;20.40;;;6.20;;
60610;SDS011;46439;51.164;13.572;2022-10-26T10:14:12;12.90;;;5.60;;
60610;SDS011;46439;51.164;13.572;2022-10-26T10:16:49;13.10;;;5.80;;
60610;SDS011;46439;51.164;13.572;2022-10-26T10:19:24;19.30;;;5.70;;
60610;SDS011;46439;51.164;13.572;2022-10-26T10:21:55;13.80;;;5.20;;
60610;SDS011;46439;51.164;13.572;2022-10-26T10:24:28;13.00;;;5.80;;
60610;SDS011;46439;51.164;13.572;2022-10-26T10:26:59;14.40;;;5.30;;
60610;SDS011;46439;51.164;13.572;2022-10-26T10:29:30;13.70;;;5.60;;
60610;SDS011;46439;51.164;13.572;2022-10-26T10:32:05;21.60;;;5.90;;
60610;SDS011;46439;51.164;13.572;2022-10-26T10:34:40;16.60;;;5.60;;
60610;SDS011;46439;51.164;13.572;2022-10-26T10:37:13;16.90;;;6.10;;
60610;SDS011;46439;51.164;13.572;2022-10-26T10:39:54;11.70;;;5.80;;
60610;SDS011;46439;51.164;13.572;2022-10-26T10:42:26;17.40;;;5.30;;
60610;SDS011;46439;51.164;13.572;2022-10-26T10:44:58;16.80;;;6.00;;
60610;SDS011;46439;51.164;13.572;2022-10-26T10:47:28;12.50;;;5.00;;
60610;SDS011;46439;51.164;13.572;2022-10-26T10:49:59;12.20;;;4.90;;
60610;SDS011;46439;51.164;13.572;2022-10-26T10:52:31;13.20;;;4.90;;
60610;SDS011;46439;51.164;13.572;2022-10-26T10:55:09;15.60;;;5.10;;
60610;SDS011;46439;51.164;13.572;2022-10-26T10:57:51;13.20;;;4.50;;
60610;SDS011;46439;51.164;13.572;2022-10-26T11:00:27;11.30;;;4.10;;
60610;SDS011;46439;51.164;13.572;2022-10-26T11:05:39;12.40;;;5.00;;
60610;SDS011;46439;51.164;13.572;2022-10-26T11:08:18;12.20;;;4.90;;
60610;SDS011;46439;51.164;13.572;2022-10-26T11:10:52;14.80;;;4.90;;
60610;SDS011;46439;51.164;13.572;2022-10-26T11:13:28;13.20;;;5.00;;
60610;SDS011;46439;51.164;13.572;2022-10-26T11:16:04;16.30;;;5.10;;
60610;SDS011;46439;51.164;13.572;2022-10-26T11:18:39;13.30;;;4.40;;
60610;SDS011;46439;51.164;13.572;2022-10-26T11:21:14;12.10;;;4.10;;
60610;SDS011;46439;51.164;13.572;2022-10-26T11:23:49;14.50;;;3.90;;
60610;SDS011;46439;51.164;13.572;2022-10-26T11:26:23;8.90;;;4.20;;
60610;SDS011;46439;51.164;13.572;2022-10-26T11:28:58;15.10;;;4.10;;
60610;SDS011;46439;51.164;13.572;2022-10-26T11:34:03;12.30;;;4.10;;
60610;SDS011;46439;51.164;13.572;2022-10-26T11:39:09;11.20;;;3.90;;
60610;SDS011;46439;51.164;13.572;2022-10-26T11:41:48;11.50;;;4.60;;
60610;SDS011;46439;51.164;13.572;2022-10-26T11:44:23;9.70;;;3.90;;
60610;SDS011;46439;51.164;13.572;2022-10-26T11:46:59;7.10;;;3.40;;
60610;SDS011;46439;51.164;13.572;2022-10-26T11:49:36;8.40;;;3.50;;
60610;SDS011;46439;51.164;13.572;2022-10-26T11:52:10;12.00;;;4.10;;
60610;SDS011;46439;51.164;13.572;2022-10-26T11:54:44;9.70;;;3.70;;
60610;SDS011;46439;51.164;13.572;2022-10-26T11:57:18;8.60;;;3.40;;
60610;SDS011;46439;51.164;13.572;2022-10-26T11:59:50;14.80;;;4.20;;
60610;SDS011;46439;51.164;13.572;2022-10-26T12:02:23;9.40;;;4.20;;
60610;SDS011;46439;51.164;13.572;2022-10-26T12:04:53;13.20;;;4.00;;
60610;SDS011;46439;51.164;13.572;2022-10-26T12:07:28;8.10;;;3.90;;
60610;SDS011;46439;51.164;13.572;2022-10-26T12:09:58;8.70;;;3.60;;
60610;SDS011;46439;51.164;13.572;2022-10-26T12:12:31;14.40;;;3.80;;
60610;SDS011;46439;51.164;13.572;2022-10-26T12:15:12;9.20;;;3.90;;
60610;SDS011;46439;51.164;13.572;2022-10-26T12:17:48;11.50;;;4.10;;
60610;SDS011;46439;51.164;13.572;2022-10-26T12:20:33;13.80;;;4.50;;
60610;SDS011;46439;51.164;13.572;2022-10-26T12:23:18;14.30;;;4.00;;
60610;SDS011;46439;51.164;13.572;2022-10-26T12:25:47;12.50;;;7.10;;
60610;SDS011;46439;51.164;13.572;2022-10-26T12:28:37;15.00;;;7.70;;
60610;SDS011;46439;51.164;13.572;2022-10-26T12:36:47;8.10;;;3.40;;
60610;SDS011;46439;51.164;13.572;2022-10-26T12:39:36;11.50;;;3.40;;
60610;SDS011;46439;51.164;13.572;2022-10-26T12:45:05;6.20;;;2.80;;
60610;SDS011;46439;51.164;13.572;2022-10-26T12:48:01;7.10;;;3.20;;
60610;SDS011;46439;51.164;13.572;2022-10-26T12:50:31;11.00;;;2.50;;
60610;SDS011;46439;51.164;13.572;2022-10-26T12:53:03;7.10;;;2.90;;
60610;SDS011;46439;51.164;13.572;2022-10-26T12:55:49;6.70;;;2.60;;
60610;SDS011;46439;51.164;13.572;2022-10-26T13:02:01;4.30;;;2.00;;
60610;SDS011;46439;51.164;13.572;2022-10-26T13:04:57;11.00;;;2.20;;
60610;SDS011;46439;51.164;13.572;2022-10-26T13:07:51;5.00;;;2.10;;
60610;SDS011;46439;51.164;13.572;2022-10-26T13:10:26;8.00;;;2.20;;
60610;SDS011;46439;51.164;13.572;2022-10-26T13:12:55;6.80;;;1.80;;
60610;SDS011;46439;51.164;13.572;2022-10-26T13:15:27;6.30;;;1.70;;
60610;SDS011;46439;51.164;13.572;2022-10-26T13:18:00;8.30;;;1.70;;
60610;SDS011;46439;51.164;13.572;2022-10-26T13:20:35;8.70;;;2.10;;
60610;SDS011;46439;51.164;13.572;2022-10-26T13:23:20;4.90;;;1.80;;
60610;SDS011;46439;51.164;13.572;2022-10-26T13:26:03;8.10;;;2.30;;
60610;SDS011;46439;51.164;13.572;2022-10-26T13:28:43;4.80;;;2.10;;
60610;SDS011;46439;51.164;13.572;2022-10-26T13:31:15;4.00;;;2.10;;
60610;SDS011;46439;51.164;13.572;2022-10-26T13:34:04;5.20;;;2.00;;
60610;SDS011;46439;51.164;13.572;2022-10-26T13:36:39;7.00;;;1.90;;
60610;SDS011;46439;51.164;13.572;2022-10-26T13:39:11;5.20;;;1.90;;
60610;SDS011;46439;51.164;13.572;2022-10-26T13:41:44;8.50;;;2.00;;
60610;SDS011;46439;51.164;13.572;2022-10-26T13:44:18;9.30;;;2.10;;
60610;SDS011;46439;51.164;13.572;2022-10-26T13:46:50;7.80;;;2.00;;
60610;SDS011;46439;51.164;13.572;2022-10-26T13:49:25;4.00;;;1.80;;
60610;SDS011;46439;51.164;13.572;2022-10-26T13:51:56;6.70;;;2.10;;
60610;SDS011;46439;51.164;13.572;2022-10-26T13:54:29;6.50;;;1.90;;
60610;SDS011;46439;51.164;13.572;2022-10-26T13:57:04;4.10;;;1.90;;
60610;SDS011;46439;51.164;13.572;2022-10-26T13:59:43;3.30;;;1.70;;
60610;SDS011;46439;51.164;13.572;2022-10-26T14:02:16;5.50;;;2.00;;
60610;SDS011;46439;51.164;13.572;2022-10-26T14:04:50;6.30;;;2.00;;
60610;SDS011;46439;51.164;13.572;2022-10-26T14:07:25;5.20;;;2.00;;
60610;SDS011;46439;51.164;13.572;2022-10-26T14:09:59;6.70;;;2.40;;
60610;SDS011;46439;51.164;13.572;2022-10-26T14:12:28;3.70;;;1.80;;
60610;SDS011;46439;51.164;13.572;2022-10-26T14:14:58;8.80;;;2.20;;
60610;SDS011;46439;51.164;13.572;2022-10-26T14:17:31;3.00;;;1.70;;
60610;SDS011;46439;51.164;13.572;2022-10-26T14:20:00;5.00;;;1.80;;
60610;SDS011;46439;51.164;13.572;2022-10-26T14:22:30;3.30;;;1.60;;
60610;SDS011;46439;51.164;13.572;2022-10-26T14:24:59;3.00;;;1.70;;
60610;SDS011;46439;51.164;13.572;2022-10-26T14:27:30;4.50;;;1.90;;
60610;SDS011;46439;51.164;13.572;2022-10-26T14:30:13;5.20;;;2.40;;
60610;SDS011;46439;51.164;13.572;2022-10-26T14:32:49;9.10;;;2.80;;
60610;SDS011;46439;51.164;13.572;2022-10-26T14:35:18;4.50;;;2.10;;
60610;SDS011;46439;51.164;13.572;2022-10-26T14:37:51;4.60;;;2.00;;
60610;SDS011;46439;51.164;13.572;2022-10-26T14:40:24;6.40;;;2.00;;
60610;SDS011;46439;51.164;13.572;2022-10-26T14:42:56;4.30;;;1.60;;
60610;SDS011;46439;51.164;13.572;2022-10-26T14:45:29;6.90;;;2.40;;
60610;SDS011;46439;51.164;13.572;2022-10-26T14:48:00;5.50;;;2.40;;
60610;SDS011;46439;51.164;13.572;2022-10-26T14:50:31;3.00;;;2.10;;
60610;SDS011;46439;51.164;13.572;2022-10-26T14:53:02;10.00;;;4.90;;
60610;SDS011;46439;51.164;13.572;2022-10-26T14:55:43;13.60;;;6.10;;
60610;SDS011;46439;51.164;13.572;2022-10-26T14:58:16;8.20;;;4.10;;
60610;SDS011;46439;51.164;13.572;2022-10-26T15:00:47;10.80;;;3.60;;
60610;SDS011;46439;51.164;13.572;2022-10-26T15:03:53;6.00;;;2.70;;
60610;SDS011;46439;51.164;13.572;2022-10-26T15:08:58;7.80;;;3.40;;
60610;SDS011;46439;51.164;13.572;2022-10-26T15:11:30;10.10;;;3.30;;
60610;SDS011;46439;51.164;13.572;2022-10-26T15:14:00;10.70;;;3.20;;
60610;SDS011;46439;51.164;13.572;2022-10-26T15:16:29;8.20;;;3.30;;
60610;SDS011;46439;51.164;13.572;2022-10-26T15:19:05;10.50;;;3.50;;
60610;SDS011;46439;51.164;13.572;2022-10-26T15:21:36;8.60;;;3.40;;
60610;SDS011;46439;51.164;13.572;2022-10-26T15:24:21;7.70;;;3.20;;
60610;SDS011;46439;51.164;13.572;2022-10-26T15:26:54;11.80;;;3.20;;
60610;SDS011;46439;51.164;13.572;2022-10-26T15:29:40;6.90;;;3.10;;
60610;SDS011;46439;51.164;13.572;2022-10-26T15:32:26;7.00;;;3.90;;
60610;SDS011;46439;51.164;13.572;2022-10-26T15:37:52;12.40;;;4.90;;
60610;SDS011;46439;51.164;13.572;2022-10-26T15:40:21;14.10;;;6.50;;
60610;SDS011;46439;51.164;13.572;2022-10-26T15:42:52;15.30;;;7.10;;
60610;SDS011;46439;51.164;13.572;2022-10-26T15:45:21;14.60;;;6.70;;
60610;SDS011;46439;51.164;13.572;2022-10-26T15:47:51;19.60;;;6.60;;
60610;SDS011;46439;51.164;13.572;2022-10-26T15:50:22;13.60;;;6.70;;